Time;durP1;ratioP1;P1;durP2;ratioP2;P2;SDS_P1;SDS_P2;PMS_P1;PMS_P2;Temp;Humidity;BMP_temperature;BMP_pressure;BME280_temperature;BME280_humidity;BME280_pressure;Samples;Min_cycle;Max_cycle;Signal;HPM_P1;HPM_P2
2022/04/13 00:01:52;;;;;;;2.80;2.60;;;;;;;;;;5100068;28;20203;-56
2022/04/13 00:04:19;;;;;;;2.40;2.20;;;;;;;;;;5099959;28;20214;-57
2022/04/13 00:06:47;;;;;;;2.45;2.25;;;;;;;;;;5099975;28;20530;-57
2022/04/13 00:09:14;;;;;;;2.33;2.13;;;;;;;;;;5100002;28;20203;-57
2022/04/13 00:11:42;;;;;;;2.42;2.20;;;;;;;;;;5100263;28;20203;-57
2022/04/13 00:14:09;;;;;;;2.75;2.55;;;;;;;;;;5099959;28;20203;-57
2022/04/13 00:16:36;;;;;;;2.58;2.38;;;;;;;;;;5100111;28;20202;-57
2022/04/13 00:19:05;;;;;;;2.50;2.25;;;;;;;;;;5099919;28;20203;-57
2022/04/13 00:21:33;;;;;;;2.33;2.13;;;;;;;;;;5099900;28;20203;-57
2022/04/13 00:24:00;;;;;;;3.45;2.20;;;;;;;;;;5100314;28;20484;-57
2022/04/13 00:26:28;;;;;;;2.40;2.20;;;;;;;;;;5099738;28;20243;-57
2022/04/13 00:28:55;;;;;;;2.83;2.63;;;;;;;;;;5099783;28;20203;-58
2022/04/13 00:31:22;;;;;;;2.50;2.25;;;;;;;;;;5111151;28;20203;-57
2022/04/13 00:33:50;;;;;;;2.83;2.50;;;;;;;;;;5118066;28;20199;-56
2022/04/13 00:36:19;;;;;;;2.50;2.30;;;;;;;;;;5119880;28;20282;-56
2022/04/13 00:38:46;;;;;;;2.40;2.20;;;;;;;;;;5110076;28;20196;-57
2022/04/13 00:41:14;;;;;;;2.40;2.20;;;;;;;;;;5111621;28;20303;-56
2022/04/13 00:43:42;;;;;;;2.38;2.17;;;;;;;;;;5119401;28;20218;-56
2022/04/13 00:46:09;;;;;;;2.25;2.05;;;;;;;;;;5119115;28;20245;-57
2022/04/13 00:48:39;;;;;;;2.40;2.20;;;;;;;;;;5118011;28;20454;-57
2022/04/13 00:51:08;;;;;;;2.40;2.20;;;;;;;;;;5118528;28;20474;-57
2022/04/13 00:53:37;;;;;;;2.42;2.22;;;;;;;;;;5119341;28;20302;-57
2022/04/13 00:56:05;;;;;;;3.13;2.63;;;;;;;;;;5119689;28;20570;-57
2022/04/13 00:58:34;;;;;;;2.38;2.17;;;;;;;;;;5113475;28;20332;-57
2022/04/13 01:01:03;;;;;;;2.40;2.20;;;;;;;;;;5098779;28;20260;-57
2022/04/13 01:03:31;;;;;;;2.53;2.33;;;;;;;;;;5098598;28;20260;-57
2022/04/13 01:05:59;;;;;;;2.47;2.28;;;;;;;;;;5098775;28;20228;-57
2022/04/13 01:08:28;;;;;;;2.60;2.40;;;;;;;;;;5108799;28;20211;-56
2022/04/13 01:10:58;;;;;;;2.25;2.05;;;;;;;;;;5104116;28;20199;-57
2022/04/13 01:13:26;;;;;;;1.95;1.83;;;;;;;;;;5100502;28;20207;-56
2022/04/13 01:15:53;;;;;;;2.25;2.05;;;;;;;;;;5098607;28;20196;-57
2022/04/13 01:18:20;;;;;;;2.53;2.33;;;;;;;;;;5101998;28;20586;-57
2022/04/13 01:20:52;;;;;;;2.05;1.85;;;;;;;;;;5119482;28;20203;-57
2022/04/13 01:23:22;;;;;;;2.10;1.90;;;;;;;;;;5118705;28;20206;-57
2022/04/13 01:25:50;;;;;;;2.30;2.10;;;;;;;;;;5118919;28;20223;-57
2022/04/13 01:28:17;;;;;;;2.47;2.28;;;;;;;;;;5116080;28;20272;-57
2022/04/13 01:30:45;;;;;;;2.30;2.10;;;;;;;;;;5100800;28;20738;-57
2022/04/13 01:33:12;;;;;;;2.60;2.40;;;;;;;;;;5118578;28;20405;-57
2022/04/13 01:35:40;;;;;;;2.22;2.03;;;;;;;;;;5118204;28;20203;-57
2022/04/13 01:38:07;;;;;;;2.30;1.90;;;;;;;;;;5111590;28;20524;-57
2022/04/13 01:40:36;;;;;;;2.08;1.95;;;;;;;;;;5105412;28;20195;-56
2022/04/13 01:43:04;;;;;;;2.20;2.00;;;;;;;;;;5111359;28;20203;-57
2022/04/13 01:45:31;;;;;;;2.28;2.08;;;;;;;;;;5098354;28;20583;-56
2022/04/13 01:47:59;;;;;;;2.53;2.13;;;;;;;;;;5106950;28;20202;-57
2022/04/13 01:50:26;;;;;;;2.38;2.17;;;;;;;;;;5118117;28;20578;-56
2022/04/13 01:52:53;;;;;;;2.15;1.95;;;;;;;;;;5106555;28;20200;-57
2022/04/13 01:55:21;;;;;;;2.17;1.90;;;;;;;;;;5097905;28;20203;-57
2022/04/13 01:57:50;;;;;;;2.10;1.90;;;;;;;;;;5097879;28;20199;-56
2022/04/13 02:00:17;;;;;;;1.98;1.85;;;;;;;;;;5110280;28;20196;-56
2022/04/13 02:02:46;;;;;;;2.28;1.98;;;;;;;;;;5096891;28;20203;-57
2022/04/13 02:05:13;;;;;;;2.17;1.98;;;;;;;;;;5097061;28;20200;-57
2022/04/13 02:07:41;;;;;;;2.60;2.40;;;;;;;;;;5098768;28;20223;-57
2022/04/13 02:10:09;;;;;;;2.03;1.90;;;;;;;;;;5098327;28;20306;-57
2022/04/13 02:12:37;;;;;;;2.13;1.92;;;;;;;;;;5110952;28;20214;-56
2022/04/13 02:15:07;;;;;;;2.10;1.90;;;;;;;;;;5118627;28;20330;-62
2022/04/13 02:17:34;;;;;;;2.30;1.90;;;;;;;;;;5118297;28;20203;-56
2022/04/13 02:20:02;;;;;;;2.20;2.00;;;;;;;;;;5118666;28;20522;-56
2022/04/13 02:22:29;;;;;;;1.95;1.75;;;;;;;;;;5118774;28;20210;-57
2022/04/13 02:24:56;;;;;;;2.08;1.88;;;;;;;;;;5117982;28;20592;-57
2022/04/13 02:27:24;;;;;;;2.28;2.03;;;;;;;;;;5118309;28;20229;-56
2022/04/13 02:29:51;;;;;;;2.40;2.00;;;;;;;;;;5118529;28;20203;-57
2022/04/13 02:32:20;;;;;;;2.40;2.20;;;;;;;;;;5118310;28;20234;-56
2022/04/13 02:34:48;;;;;;;2.10;1.90;;;;;;;;;;5118422;28;20203;-57
2022/04/13 02:37:17;;;;;;;2.10;2.00;;;;;;;;;;5118678;28;20590;-57
2022/04/13 02:39:45;;;;;;;2.08;1.98;;;;;;;;;;5112668;28;20199;-57
2022/04/13 02:42:14;;;;;;;2.35;2.15;;;;;;;;;;5117508;28;20264;-56
2022/04/13 02:44:42;;;;;;;2.03;1.85;;;;;;;;;;5117359;28;20205;-57
2022/04/13 02:47:09;;;;;;;1.90;1.80;;;;;;;;;;5102841;28;20513;-56
2022/04/13 02:49:39;;;;;;;2.30;2.10;;;;;;;;;;5097274;28;20192;-57
2022/04/13 02:52:06;;;;;;;1.98;1.80;;;;;;;;;;5096794;28;20223;-57
2022/04/13 02:54:34;;;;;;;1.95;1.85;;;;;;;;;;5097396;28;20221;-57
2022/04/13 02:57:01;;;;;;;1.70;1.60;;;;;;;;;;5112488;28;20206;-56
2022/04/13 02:59:29;;;;;;;2.13;2.00;;;;;;;;;;5108857;28;20222;-57
2022/04/13 03:01:56;;;;;;;2.30;2.08;;;;;;;;;;5101152;28;20282;-57
2022/04/13 03:04:24;;;;;;;2.00;1.90;;;;;;;;;;5101837;28;20207;-56
2022/04/13 03:06:53;;;;;;;1.88;1.77;;;;;;;;;;5103303;28;20215;-56
2022/04/13 03:09:20;;;;;;;2.10;1.90;;;;;;;;;;5112291;28;20198;-56
2022/04/13 03:11:47;;;;;;;1.73;1.60;;;;;;;;;;5121388;28;20494;-56
2022/04/13 03:14:15;;;;;;;2.20;2.00;;;;;;;;;;5121618;28;20199;-57
2022/04/13 03:16:42;;;;;;;2.13;1.95;;;;;;;;;;5119419;28;20195;-56
2022/04/13 03:19:10;;;;;;;2.13;1.92;;;;;;;;;;5100916;28;20496;-57
2022/04/13 03:21:37;;;;;;;2.00;1.80;;;;;;;;;;5100916;28;20200;-56
2022/04/13 03:24:06;;;;;;;2.40;1.83;;;;;;;;;;5100819;28;20216;-57
2022/04/13 03:26:34;;;;;;;2.20;2.00;;;;;;;;;;5100633;28;20215;-57
2022/04/13 03:29:01;;;;;;;1.98;1.88;;;;;;;;;;5101151;28;20200;-57
2022/04/13 03:31:29;;;;;;;2.05;1.85;;;;;;;;;;5100820;28;20234;-56
2022/04/13 03:33:56;;;;;;;1.75;1.65;;;;;;;;;;5100902;28;20203;-57
2022/04/13 03:36:23;;;;;;;2.13;1.92;;;;;;;;;;5100733;28;20199;-57
2022/04/13 03:38:51;;;;;;;2.28;2.03;;;;;;;;;;5112968;28;20507;-57
2022/04/13 03:41:19;;;;;;;2.00;1.80;;;;;;;;;;5105876;28;20210;-57
2022/04/13 03:43:47;;;;;;;1.90;1.80;;;;;;;;;;5100971;28;20203;-56
2022/04/13 03:46:15;;;;;;;1.73;1.63;;;;;;;;;;5105790;28;20227;-57
2022/04/13 03:48:42;;;;;;;2.20;2.00;;;;;;;;;;5118440;28;20199;-56
2022/04/13 03:51:09;;;;;;;1.98;1.77;;;;;;;;;;5120247;28;20253;-56
2022/04/13 03:53:36;;;;;;;1.80;1.70;;;;;;;;;;5120381;28;20213;-57
2022/04/13 03:56:04;;;;;;;2.05;1.88;;;;;;;;;;5105663;28;20586;-56
2022/04/13 03:58:33;;;;;;;2.03;1.83;;;;;;;;;;5100252;28;20199;-56
2022/04/13 04:01:01;;;;;;;1.85;1.70;;;;;;;;;;5109342;28;20238;-56
2022/04/13 04:03:28;;;;;;;1.90;1.80;;;;;;;;;;5101124;28;20210;-56
2022/04/13 04:05:56;;;;;;;1.85;1.75;;;;;;;;;;5099542;28;20200;-56
2022/04/13 04:08:23;;;;;;;1.80;1.70;;;;;;;;;;5099422;28;20227;-58
2022/04/13 04:10:51;;;;;;;1.83;1.70;;;;;;;;;;5099670;28;20257;-56
2022/04/13 04:13:18;;;;;;;1.80;1.70;;;;;;;;;;5099723;28;20203;-55
2022/04/13 04:15:47;;;;;;;1.95;1.80;;;;;;;;;;5099048;28;20211;-58
2022/04/13 04:18:15;;;;;;;1.83;1.70;;;;;;;;;;5099447;28;20196;-58
2022/04/13 04:20:42;;;;;;;2.28;2.08;;;;;;;;;;5098835;28;20290;-56
2022/04/13 04:23:10;;;;;;;2.20;2.00;;;;;;;;;;5099449;28;20206;-57
2022/04/13 04:25:37;;;;;;;1.90;1.75;;;;;;;;;;5099150;28;20293;-58
2022/04/13 04:28:06;;;;;;;2.03;1.83;;;;;;;;;;5098759;28;20288;-57
2022/04/13 04:30:33;;;;;;;2.22;2.03;;;;;;;;;;5098333;28;20210;-59
2022/04/13 04:33:02;;;;;;;1.80;1.70;;;;;;;;;;5098602;28;20195;-58
2022/04/13 04:35:29;;;;;;;2.15;1.70;;;;;;;;;;5099278;28;20204;-58
2022/04/13 04:37:57;;;;;;;1.92;1.73;;;;;;;;;;5097783;28;20738;-58
2022/04/13 04:40:24;;;;;;;1.70;1.60;;;;;;;;;;5101821;28;20210;-57
2022/04/13 04:42:52;;;;;;;1.65;1.50;;;;;;;;;;5118266;28;20217;-58
2022/04/13 04:45:20;;;;;;;1.90;1.80;;;;;;;;;;5109758;28;20381;-57
2022/04/13 04:47:47;;;;;;;1.50;1.40;;;;;;;;;;5105225;28;20222;-57
2022/04/13 04:50:16;;;;;;;2.03;1.83;;;;;;;;;;5088519;28;20210;-58
2022/04/13 04:52:44;;;;;;;1.85;1.70;;;;;;;;;;5096989;28;20203;-57
2022/04/13 04:55:12;;;;;;;1.73;1.63;;;;;;;;;;5096949;28;20200;-58
2022/04/13 04:57:40;;;;;;;1.88;1.77;;;;;;;;;;5096564;28;20200;-58
2022/04/13 05:00:09;;;;;;;2.00;1.70;;;;;;;;;;5096441;28;20211;-58
2022/04/13 05:02:37;;;;;;;1.80;1.70;;;;;;;;;;5095155;28;20372;-58
2022/04/13 05:05:05;;;;;;;1.80;1.70;;;;;;;;;;5096527;28;20203;-57
2022/04/13 05:07:33;;;;;;;1.88;1.77;;;;;;;;;;5098600;28;20215;-58
2022/04/13 05:10:01;;;;;;;1.75;1.65;;;;;;;;;;5114741;28;20214;-58
2022/04/13 05:12:29;;;;;;;1.88;1.77;;;;;;;;;;5115177;27;20228;-58
2022/04/13 05:14:56;;;;;;;2.03;1.88;;;;;;;;;;5114206;28;20207;-56
2022/04/13 05:17:25;;;;;;;1.60;1.50;;;;;;;;;;5116092;28;20187;-57
2022/04/13 05:19:53;;;;;;;1.92;1.83;;;;;;;;;;5098942;28;20741;-58
2022/04/13 05:22:20;;;;;;;1.80;1.70;;;;;;;;;;5115781;28;20198;-58
2022/04/13 05:24:51;;;;;;;1.85;1.75;;;;;;;;;;5114423;28;20195;-57
2022/04/13 05:27:18;;;;;;;1.70;1.60;;;;;;;;;;5094669;28;20246;-58
2022/04/13 05:29:45;;;;;;;2.05;1.60;;;;;;;;;;5096835;28;20211;-57
2022/04/13 05:32:15;;;;;;;1.92;1.73;;;;;;;;;;5114736;28;20360;-58
2022/04/13 05:34:42;;;;;;;2.22;1.73;;;;;;;;;;5115635;28;20207;-58
2022/04/13 05:37:09;;;;;;;1.58;1.48;;;;;;;;;;5108775;28;20207;-58
2022/04/13 05:39:38;;;;;;;1.65;1.55;;;;;;;;;;5113651;28;20199;-58
2022/04/13 05:42:07;;;;;;;1.70;1.60;;;;;;;;;;5097160;28;20288;-56
2022/04/13 05:44:34;;;;;;;1.80;1.70;;;;;;;;;;5094777;28;20199;-56
2022/04/13 05:47:02;;;;;;;2.03;1.85;;;;;;;;;;5113654;28;20246;-56
2022/04/13 05:49:29;;;;;;;2.05;1.40;;;;;;;;;;5103550;28;20199;-57
2022/04/13 05:51:56;;;;;;;1.65;1.52;;;;;;;;;;5096378;28;20451;-56
2022/04/13 05:54:24;;;;;;;1.60;1.50;;;;;;;;;;5113430;28;20195;-59
2022/04/13 05:56:51;;;;;;;1.77;1.67;;;;;;;;;;5093224;28;20214;-57
2022/04/13 05:59:20;;;;;;;1.77;1.58;;;;;;;;;;5093912;28;20203;-56
2022/04/13 06:01:47;;;;;;;1.63;1.52;;;;;;;;;;5103093;28;20222;-56
2022/04/13 06:04:15;;;;;;;1.90;1.65;;;;;;;;;;5095235;28;20603;-57
2022/04/13 06:06:42;;;;;;;1.85;1.45;;;;;;;;;;5093377;28;20226;-56
2022/04/13 06:09:09;;;;;;;1.70;1.58;;;;;;;;;;5093972;28;20288;-56
2022/04/13 06:11:37;;;;;;;1.60;1.50;;;;;;;;;;5090010;28;20211;-56
2022/04/13 06:14:04;;;;;;;1.90;1.80;;;;;;;;;;5083423;28;20757;-56
2022/04/13 06:16:33;;;;;;;1.70;1.50;;;;;;;;;;5077312;28;20208;-56
2022/04/13 06:19:01;;;;;;;1.60;1.50;;;;;;;;;;5079279;28;20328;-57
2022/04/13 06:21:28;;;;;;;1.70;1.60;;;;;;;;;;5093418;28;20480;-57
2022/04/13 06:23:56;;;;;;;1.65;1.55;;;;;;;;;;5093329;28;20409;-56
2022/04/13 06:26:26;;;;;;;1.80;1.70;;;;;;;;;;5094249;28;20192;-57
2022/04/13 06:28:54;;;;;;;1.63;1.52;;;;;;;;;;5095401;28;20237;-57
2022/04/13 06:31:22;;;;;;;1.70;1.60;;;;;;;;;;5094537;28;20435;-56
2022/04/13 06:33:52;;;;;;;2.08;1.55;;;;;;;;;;5094501;28;20203;-56
2022/04/13 06:36:19;;;;;;;1.90;1.70;;;;;;;;;;5094296;28;20587;-56
2022/04/13 06:38:46;;;;;;;2.08;1.70;;;;;;;;;;5107938;28;20195;-56
2022/04/13 06:41:14;;;;;;;1.70;1.60;;;;;;;;;;5104512;28;20551;-57
2022/04/13 06:43:42;;;;;;;1.80;1.70;;;;;;;;;;5095360;28;20222;-58
2022/04/13 06:46:10;;;;;;;1.75;1.55;;;;;;;;;;5107351;28;20222;-57
2022/04/13 06:48:37;;;;;;;1.80;1.55;;;;;;;;;;5114454;28;20223;-57
2022/04/13 06:51:06;;;;;;;1.90;1.25;;;;;;;;;;5114109;28;20191;-56
2022/04/13 06:53:34;;;;;;;1.60;1.50;;;;;;;;;;5111595;28;20550;-58
2022/04/13 06:56:01;;;;;;;1.60;1.50;;;;;;;;;;5094076;28;20191;-56
2022/04/13 06:58:29;;;;;;;1.60;1.50;;;;;;;;;;5112340;28;20195;-56
2022/04/13 07:00:57;;;;;;;2.38;1.75;;;;;;;;;;5112217;28;20195;-57
2022/04/13 07:03:24;;;;;;;1.58;1.48;;;;;;;;;;5114103;28;20424;-56
2022/04/13 07:05:52;;;;;;;1.42;1.17;;;;;;;;;;5112976;28;20207;-56
2022/04/13 07:08:21;;;;;;;1.60;1.50;;;;;;;;;;5101842;28;20223;-57
2022/04/13 07:10:48;;;;;;;1.55;1.30;;;;;;;;;;5103661;28;20199;-56
2022/04/13 07:13:16;;;;;;;2.05;1.50;;;;;;;;;;5111816;28;20191;-57
2022/04/13 07:15:44;;;;;;;1.65;1.55;;;;;;;;;;5110978;28;20207;-56
2022/04/13 07:18:14;;;;;;;1.60;1.50;;;;;;;;;;5073294;28;20197;-56
2022/04/13 07:20:42;;;;;;;1.80;1.50;;;;;;;;;;5089297;28;20445;-57
2022/04/13 07:23:09;;;;;;;2.15;1.30;;;;;;;;;;5113218;28;20203;-56
2022/04/13 07:25:38;;;;;;;1.52;1.42;;;;;;;;;;5096878;28;20188;-56
2022/04/13 07:28:06;;;;;;;2.15;1.55;;;;;;;;;;5092976;28;20345;-57
2022/04/13 07:30:33;;;;;;;1.70;1.60;;;;;;;;;;5092429;28;20195;-57
2022/04/13 07:33:01;;;;;;;1.75;1.65;;;;;;;;;;5092170;28;20202;-56
2022/04/13 07:35:29;;;;;;;1.48;1.30;;;;;;;;;;5099448;28;20531;-57
2022/04/13 07:37:56;;;;;;;1.67;1.50;;;;;;;;;;5107908;28;20196;-56
2022/04/13 07:40:24;;;;;;;1.55;1.45;;;;;;;;;;5094254;28;20196;-57
2022/04/13 07:42:53;;;;;;;1.70;1.60;;;;;;;;;;5115633;28;20203;-57
2022/04/13 07:45:20;;;;;;;3.50;1.70;;;;;;;;;;5101168;28;20231;-56
2022/04/13 07:47:48;;;;;;;1.92;1.60;;;;;;;;;;5113841;28;20254;-56
2022/04/13 07:50:15;;;;;;;1.80;1.70;;;;;;;;;;5115857;28;20195;-56
2022/04/13 07:52:43;;;;;;;1.80;1.50;;;;;;;;;;5115941;28;20482;-56
2022/04/13 07:55:11;;;;;;;2.13;1.85;;;;;;;;;;5116171;28;20199;-56
2022/04/13 07:57:39;;;;;;;1.95;1.70;;;;;;;;;;5094784;28;20192;-56
2022/04/13 08:00:10;;;;;;;2.20;1.52;;;;;;;;;;5097726;28;20196;-57
2022/04/13 08:02:37;;;;;;;2.75;1.52;;;;;;;;;;5084603;28;20203;-57
2022/04/13 08:05:05;;;;;;;1.95;1.50;;;;;;;;;;5097328;28;20245;-57
2022/04/13 08:07:33;;;;;;;2.08;1.88;;;;;;;;;;5097418;28;20567;-57
2022/04/13 08:10:00;;;;;;;1.67;1.50;;;;;;;;;;5097519;28;20204;-56
2022/04/13 08:12:31;;;;;;;1.88;1.77;;;;;;;;;;5097389;28;20199;-57
2022/04/13 08:14:59;;;;;;;2.53;1.67;;;;;;;;;;5096345;28;20214;-56
2022/04/13 08:17:28;;;;;;;1.70;1.60;;;;;;;;;;5095648;28;20486;-56
2022/04/13 08:19:55;;;;;;;1.65;1.55;;;;;;;;;;5095244;28;20195;-57
2022/04/13 08:22:26;;;;;;;1.88;1.58;;;;;;;;;;5095795;28;20476;-57
2022/04/13 08:24:54;;;;;;;1.55;1.45;;;;;;;;;;5096552;28;20210;-56
2022/04/13 08:27:22;;;;;;;1.90;1.50;;;;;;;;;;5096450;28;20226;-56
2022/04/13 08:29:50;;;;;;;2.00;1.80;;;;;;;;;;5095277;28;20234;-56
2022/04/13 08:32:18;;;;;;;1.60;1.50;;;;;;;;;;5095923;28;20669;-57
2022/04/13 08:34:48;;;;;;;2.40;1.90;;;;;;;;;;5094936;28;20508;-56
2022/04/13 08:37:15;;;;;;;1.73;1.50;;;;;;;;;;5095227;28;20314;-56
2022/04/13 08:39:42;;;;;;;2.00;1.65;;;;;;;;;;5112292;28;20206;-56
2022/04/13 08:42:12;;;;;;;2.00;1.73;;;;;;;;;;5100332;28;20455;-57
2022/04/13 08:44:50;;;;;;;1.83;1.70;;;;;;;;;;5095292;28;20203;-57
2022/04/13 08:47:18;;;;;;;1.95;1.77;;;;;;;;;;5116207;28;20203;-56
2022/04/13 08:49:50;;;;;;;1.90;1.55;;;;;;;;;;5115041;27;20238;-57
2022/04/13 08:52:21;;;;;;;3.00;1.63;;;;;;;;;;5115375;28;20202;-56
2022/04/13 08:54:54;;;;;;;2.35;1.80;;;;;;;;;;5113067;28;20210;-57
2022/04/13 08:57:24;;;;;;;2.53;1.83;;;;;;;;;;5095098;28;20192;-57
2022/04/13 08:59:57;;;;;;;1.73;1.60;;;;;;;;;;5085686;28;20287;-57
2022/04/13 09:02:30;;;;;;;1.90;1.70;;;;;;;;;;5095783;28;20734;-57
2022/04/13 09:04:59;;;;;;;1.63;1.52;;;;;;;;;;5095731;28;20451;-57
2022/04/13 09:07:29;;;;;;;2.42;1.58;;;;;;;;;;5097911;28;20503;-57
2022/04/13 09:09:57;;;;;;;2.33;1.70;;;;;;;;;;5116667;28;20214;-57
2022/04/13 09:12:24;;;;;;;2.00;1.85;;;;;;;;;;5116836;28;20233;-57
2022/04/13 09:14:52;;;;;;;2.10;1.70;;;;;;;;;;5115170;28;20195;-57
2022/04/13 09:17:20;;;;;;;1.85;1.75;;;;;;;;;;5116022;28;20249;-57
2022/04/13 09:19:48;;;;;;;2.45;1.83;;;;;;;;;;5113035;28;20481;-57
2022/04/13 09:22:17;;;;;;;1.67;1.58;;;;;;;;;;5114908;28;20203;-57
2022/04/13 09:24:45;;;;;;;1.95;1.75;;;;;;;;;;5112970;28;20207;-57
2022/04/13 09:27:14;;;;;;;2.20;1.88;;;;;;;;;;5113508;28;20199;-57
2022/04/13 09:29:41;;;;;;;1.92;1.80;;;;;;;;;;5094266;28;20430;-57
2022/04/13 09:32:09;;;;;;;1.90;1.80;;;;;;;;;;5097440;28;20206;-57
2022/04/13 09:34:37;;;;;;;1.77;1.67;;;;;;;;;;5113045;28;20203;-57
2022/04/13 09:37:04;;;;;;;2.20;1.70;;;;;;;;;;5092631;28;20202;-57
2022/04/13 09:39:34;;;;;;;1.42;1.33;;;;;;;;;;5111437;28;20195;-56
2022/04/13 09:42:03;;;;;;;2.22;1.73;;;;;;;;;;5110214;28;20629;-57
2022/04/13 09:44:32;;;;;;;1.70;1.60;;;;;;;;;;5114225;28;20195;-57
2022/04/13 09:47:06;;;;;;;2.28;1.65;;;;;;;;;;5073504;28;20507;-57
2022/04/13 09:49:35;;;;;;;1.70;1.60;;;;;;;;;;5074520;28;20315;-56
2022/04/13 09:52:02;;;;;;;1.70;1.60;;;;;;;;;;5093913;28;20211;-57
2022/04/13 09:54:30;;;;;;;1.65;1.40;;;;;;;;;;5094131;28;20203;-57
2022/04/13 09:56:59;;;;;;;1.65;1.55;;;;;;;;;;5111860;28;20199;-57
2022/04/13 09:59:27;;;;;;;1.90;1.70;;;;;;;;;;5095234;28;20203;-57
2022/04/13 10:01:55;;;;;;;1.63;1.40;;;;;;;;;;5093717;28;20218;-57
2022/04/13 10:04:25;;;;;;;2.20;1.60;;;;;;;;;;5092110;28;20202;-57
2022/04/13 10:06:53;;;;;;;1.98;1.55;;;;;;;;;;5091686;28;20203;-57
2022/04/13 10:09:20;;;;;;;1.80;1.70;;;;;;;;;;5090510;28;20227;-57
2022/04/13 10:12:02;;;;;;;1.73;1.63;;;;;;;;;;5090568;28;20470;-57
2022/04/13 10:14:30;;;;;;;1.90;1.70;;;;;;;;;;5092548;28;20203;-57
2022/04/13 10:17:06;;;;;;;1.60;1.48;;;;;;;;;;5092013;28;20199;-57
2022/04/13 10:19:34;;;;;;;1.63;1.52;;;;;;;;;;5103196;28;20199;-57
2022/04/13 10:22:02;;;;;;;1.50;1.40;;;;;;;;;;5111272;28;20195;-58
2022/04/13 10:24:30;;;;;;;1.52;1.42;;;;;;;;;;5106310;28;20209;-57
2022/04/13 10:27:03;;;;;;;1.92;1.60;;;;;;;;;;5113824;28;20210;-57
2022/04/13 10:29:31;;;;;;;1.70;1.42;;;;;;;;;;5112023;28;20246;-57
2022/04/13 10:32:05;;;;;;;1.58;1.40;;;;;;;;;;5108769;28;20245;-57
2022/04/13 10:34:33;;;;;;;1.77;1.50;;;;;;;;;;5090254;28;20195;-57
2022/04/13 10:37:01;;;;;;;1.75;1.65;;;;;;;;;;5091589;28;20200;-57
2022/04/13 10:39:30;;;;;;;1.65;1.55;;;;;;;;;;5108914;28;20186;-57
2022/04/13 10:41:57;;;;;;;1.88;1.67;;;;;;;;;;5100724;28;20265;-57
2022/04/13 10:44:30;;;;;;;1.52;1.42;;;;;;;;;;5091732;28;20199;-58
2022/04/13 10:47:01;;;;;;;1.90;1.70;;;;;;;;;;5111343;28;20235;-57
2022/04/13 10:49:30;;;;;;;1.73;1.63;;;;;;;;;;5110254;28;20237;-57
2022/04/13 10:52:02;;;;;;;1.70;1.60;;;;;;;;;;5074395;28;20207;-57
2022/04/13 10:54:32;;;;;;;1.55;1.40;;;;;;;;;;5091327;28;20261;-57
2022/04/13 10:57:00;;;;;;;1.60;1.50;;;;;;;;;;5091667;28;20210;-57
2022/04/13 10:59:32;;;;;;;1.67;1.58;;;;;;;;;;5091330;28;20210;-57
2022/04/13 11:02:02;;;;;;;2.60;1.70;;;;;;;;;;5090607;28;20286;-57
2022/04/13 11:04:33;;;;;;;1.70;1.45;;;;;;;;;;5098366;28;20195;-57
2022/04/13 11:07:02;;;;;;;1.58;1.48;;;;;;;;;;5091180;28;20358;-57
2022/04/13 11:09:31;;;;;;;2.20;1.40;;;;;;;;;;5091291;28;20223;-57
2022/04/13 11:12:00;;;;;;;1.52;1.42;;;;;;;;;;5110198;28;20542;-57
2022/04/13 11:14:29;;;;;;;1.85;1.42;;;;;;;;;;5111461;28;20245;-57
2022/04/13 11:17:13;;;;;;;1.70;1.60;;;;;;;;;;5072383;28;20576;-57
2022/04/13 11:19:42;;;;;;;1.85;1.60;;;;;;;;;;5084363;28;20241;-58
2022/04/13 11:22:11;;;;;;;1.40;1.30;;;;;;;;;;5107541;28;20408;-57
2022/04/13 11:24:39;;;;;;;2.13;1.60;;;;;;;;;;5107939;28;20190;-57
2022/04/13 11:27:07;;;;;;;1.65;1.30;;;;;;;;;;5116394;28;20206;-57
2022/04/13 11:29:37;;;;;;;1.63;1.50;;;;;;;;;;5099380;28;20480;-57
2022/04/13 11:32:12;;;;;;;1.58;1.48;;;;;;;;;;5095426;28;20571;-57
2022/04/13 11:34:49;;;;;;;1.77;1.55;;;;;;;;;;5102708;28;20293;-57
2022/04/13 11:37:17;;;;;;;1.40;1.30;;;;;;;;;;5113003;28;20202;-57
2022/04/13 11:39:49;;;;;;;1.48;1.38;;;;;;;;;;5113927;28;20193;-57
2022/04/13 11:42:18;;;;;;;1.52;1.42;;;;;;;;;;5095881;28;20594;-56
2022/04/13 11:44:50;;;;;;;2.30;1.75;;;;;;;;;;5095667;28;20200;-57
2022/04/13 11:47:18;;;;;;;1.70;1.50;;;;;;;;;;5109049;28;20302;-57
2022/04/13 11:49:56;;;;;;;1.52;1.42;;;;;;;;;;5115100;28;20508;-58
2022/04/13 11:52:42;;;;;;;1.88;1.55;;;;;;;;;;5114336;28;20221;-57
2022/04/13 11:55:16;;;;;;;3.25;1.70;;;;;;;;;;5113557;28;20323;-56
2022/04/13 11:57:59;;;;;;;2.00;1.80;;;;;;;;;;5112998;27;20203;-57
2022/04/13 12:00:38;;;;;;;1.92;1.73;;;;;;;;;;5102771;28;20713;-56
2022/04/13 12:03:07;;;;;;;1.40;1.30;;;;;;;;;;5093288;28;20299;-57
2022/04/13 12:05:37;;;;;;;1.70;1.60;;;;;;;;;;5093036;28;20331;-56
2022/04/13 12:08:09;;;;;;;1.67;1.30;;;;;;;;;;5094499;28;20749;-56
2022/04/13 12:10:46;;;;;;;1.70;1.50;;;;;;;;;;5094237;28;20223;-56
2022/04/13 12:13:13;;;;;;;1.48;1.38;;;;;;;;;;5094376;28;20280;-57
2022/04/13 12:15:46;;;;;;;1.65;1.55;;;;;;;;;;5093100;28;20195;-57
2022/04/13 12:18:14;;;;;;;1.73;1.63;;;;;;;;;;5093479;28;20202;-57
2022/04/13 12:20:42;;;;;;;1.67;1.58;;;;;;;;;;5093688;28;20667;-56
2022/04/13 12:23:23;;;;;;;1.60;1.50;;;;;;;;;;5080470;28;20193;-57
2022/04/13 12:25:51;;;;;;;1.80;1.58;;;;;;;;;;5072821;28;20399;-57
2022/04/13 12:28:20;;;;;;;1.52;1.42;;;;;;;;;;5072303;28;20200;-56
2022/04/13 12:30:56;;;;;;;1.77;1.67;;;;;;;;;;5072326;28;20743;-57
2022/04/13 12:33:24;;;;;;;1.92;1.70;;;;;;;;;;5071555;28;20678;-57
2022/04/13 12:35:53;;;;;;;1.60;1.50;;;;;;;;;;5095955;28;20584;-57
2022/04/13 12:38:25;;;;;;;1.70;1.60;;;;;;;;;;5101253;28;20203;-57
2022/04/13 12:41:02;;;;;;;1.70;1.60;;;;;;;;;;5101852;28;20191;-57
2022/04/13 12:43:29;;;;;;;1.70;1.50;;;;;;;;;;5112165;27;20267;-56
2022/04/13 12:45:58;;;;;;;1.70;1.60;;;;;;;;;;5099085;28;20239;-56
2022/04/13 12:48:27;;;;;;;1.77;1.67;;;;;;;;;;5092355;28;20591;-57
2022/04/13 12:50:59;;;;;;;1.60;1.50;;;;;;;;;;5095222;28;20223;-57
2022/04/13 12:53:27;;;;;;;1.50;1.40;;;;;;;;;;5095626;28;20509;-56
2022/04/13 12:55:55;;;;;;;1.70;1.60;;;;;;;;;;5093225;28;20202;-57
2022/04/13 12:58:23;;;;;;;1.40;1.30;;;;;;;;;;5094033;28;20204;-57
2022/04/13 13:00:51;;;;;;;1.65;1.55;;;;;;;;;;5092644;28;20432;-56
2022/04/13 13:03:21;;;;;;;1.75;1.65;;;;;;;;;;5092346;28;20493;-56
2022/04/13 13:05:48;;;;;;;1.52;1.42;;;;;;;;;;5093662;28;20557;-56
2022/04/13 13:08:16;;;;;;;1.77;1.67;;;;;;;;;;5102321;28;20195;-56
2022/04/13 13:10:45;;;;;;;1.65;1.55;;;;;;;;;;5112313;28;20222;-56
2022/04/13 13:13:13;;;;;;;1.65;1.55;;;;;;;;;;5114274;28;20289;-56
2022/04/13 13:15:41;;;;;;;1.70;1.60;;;;;;;;;;5113121;28;20206;-56
2022/04/13 13:18:08;;;;;;;1.83;1.60;;;;;;;;;;5110778;28;20297;-56
2022/04/13 13:20:53;;;;;;;1.88;1.60;;;;;;;;;;5112243;28;20187;-57
2022/04/13 13:23:24;;;;;;;1.60;1.50;;;;;;;;;;5112668;28;20312;-56
2022/04/13 13:25:52;;;;;;;1.80;1.50;;;;;;;;;;5108236;28;20846;-57
2022/04/13 13:28:23;;;;;;;2.00;1.90;;;;;;;;;;5095247;28;20438;-58
2022/04/13 13:30:52;;;;;;;1.75;1.63;;;;;;;;;;5090505;28;20211;-56
2022/04/13 13:33:20;;;;;;;1.70;1.60;;;;;;;;;;5091747;28;20668;-56
2022/04/13 13:35:49;;;;;;;1.70;1.38;;;;;;;;;;5092195;28;20208;-57
2022/04/13 13:38:19;;;;;;;1.67;1.58;;;;;;;;;;5092716;28;20269;-57
2022/04/13 13:40:48;;;;;;;1.63;1.52;;;;;;;;;;5091910;28;20207;-57
2022/04/13 13:43:38;;;;;;;1.67;1.58;;;;;;;;;;5085001;28;20241;-56
2022/04/13 13:46:15;;;;;;;1.50;1.40;;;;;;;;;;5105650;28;20241;-57
2022/04/13 13:48:43;;;;;;;1.70;1.60;;;;;;;;;;5112032;28;20198;-56
2022/04/13 13:51:14;;;;;;;1.65;1.55;;;;;;;;;;5112239;28;20588;-57
2022/04/13 13:53:42;;;;;;;1.63;1.52;;;;;;;;;;5111220;28;20211;-56
2022/04/13 13:56:10;;;;;;;1.70;1.60;;;;;;;;;;5113005;28;20203;-57
2022/04/13 13:58:37;;;;;;;1.65;1.55;;;;;;;;;;5112638;28;20205;-56
2022/04/13 14:01:05;;;;;;;1.65;1.55;;;;;;;;;;5101651;28;20463;-57
2022/04/13 14:03:32;;;;;;;2.00;1.70;;;;;;;;;;5091463;28;20210;-56
2022/04/13 14:06:00;;;;;;;1.65;1.55;;;;;;;;;;5091598;28;20200;-57
2022/04/13 14:08:28;;;;;;;1.60;1.50;;;;;;;;;;5090570;28;20201;-56
2022/04/13 14:10:56;;;;;;;2.10;1.73;;;;;;;;;;5090598;28;20227;-57
2022/04/13 14:13:24;;;;;;;1.83;1.73;;;;;;;;;;5091495;28;20196;-57
2022/04/13 14:15:51;;;;;;;1.90;1.80;;;;;;;;;;5091175;28;20206;-56
2022/04/13 14:18:19;;;;;;;1.77;1.67;;;;;;;;;;5093095;28;20219;-56
2022/04/13 14:20:47;;;;;;;1.40;1.30;;;;;;;;;;5091546;28;20429;-56
2022/04/13 14:23:15;;;;;;;1.73;1.50;;;;;;;;;;5090315;28;20199;-56
2022/04/13 14:25:45;;;;;;;1.60;1.50;;;;;;;;;;5091747;28;20236;-56
2022/04/13 14:28:12;;;;;;;1.80;1.70;;;;;;;;;;5091374;28;20203;-56
2022/04/13 14:30:40;;;;;;;1.70;1.60;;;;;;;;;;5090645;28;20711;-57
2022/04/13 14:33:07;;;;;;;1.80;1.70;;;;;;;;;;5092031;28;20222;-57
2022/04/13 14:35:35;;;;;;;2.00;1.90;;;;;;;;;;5091932;28;20200;-57
2022/04/13 14:38:03;;;;;;;1.63;1.52;;;;;;;;;;5095305;28;20190;-56
2022/04/13 14:40:31;;;;;;;1.70;1.60;;;;;;;;;;5101468;28;20270;-56
2022/04/13 14:43:00;;;;;;;1.73;1.63;;;;;;;;;;5091229;28;20304;-56
2022/04/13 14:45:27;;;;;;;1.83;1.65;;;;;;;;;;5103659;28;20621;-56
2022/04/13 14:47:55;;;;;;;1.80;1.63;;;;;;;;;;5111926;28;20235;-56
2022/04/13 14:50:22;;;;;;;1.60;1.50;;;;;;;;;;5112976;28;20210;-57
2022/04/13 14:52:50;;;;;;;1.80;1.70;;;;;;;;;;5117479;28;20303;-56